Time;durP1;ratioP1;P1;durP2;ratioP2;P2;SDS_P1;SDS_P2;PMS_P1;PMS_P2;Temp;Humidity;BMP_temperature;BMP_pressure;BME280_temperature;BME280_humidity;BME280_pressure;Samples;Min_cycle;Max_cycle;Signal;HPM_P1;HPM_P2
2023/10/31 00:00:50;;;;;;;2.90;1.90;;;;;;;18.98;57.38;97520.15;103769;1276;72730;-35
2023/10/31 00:03:17;;;;;;;2.30;1.90;;;;;;;18.98;57.31;97512.63;103893;1277;62269;-36
2023/10/31 00:05:44;;;;;;;2.20;1.90;;;;;;;18.97;57.34;97502.46;103961;1280;62158;-36
2023/10/31 00:08:10;;;;;;;2.40;1.80;;;;;;;18.97;57.31;97502.60;103984;1276;75175;-36
2023/10/31 00:10:37;;;;;;;2.90;1.80;;;;;;;18.97;57.33;97499.04;104197;1280;66264;-35
2023/10/31 00:13:03;;;;;;;2.80;2.10;;;;;;;18.97;57.35;97494.77;103933;1278;72491;-35
2023/10/31 00:15:30;;;;;;;3.20;1.90;;;;;;;18.96;57.42;97492.13;103993;1282;62065;-35
2023/10/31 00:17:57;;;;;;;2.70;1.80;;;;;;;18.96;57.37;97490.18;103729;1280;62180;-35
2023/10/31 00:20:24;;;;;;;2.90;2.10;;;;;;;18.96;57.36;97490.57;104308;1280;75269;-33
2023/10/31 00:22:50;;;;;;;2.00;1.80;;;;;;;18.97;57.38;97490.58;103919;1277;66057;-35
2023/10/31 00:25:17;;;;;;;2.50;2.00;;;;;;;18.96;57.36;97487.62;103846;1277;72536;-34
2023/10/31 00:27:44;;;;;;;2.60;2.20;;;;;;;18.96;57.33;97491.42;104020;1277;62080;-35
2023/10/31 00:30:11;;;;;;;2.80;2.00;;;;;;;18.96;57.28;97487.08;103963;1276;62449;-34
2023/10/31 00:32:37;;;;;;;4.10;2.20;;;;;;;18.96;57.30;97480.33;103782;1282;75506;-35
2023/10/31 00:35:05;;;;;;;2.30;1.90;;;;;;;18.96;57.30;97485.22;103676;1282;65810;-35
2023/10/31 00:37:31;;;;;;;2.10;1.70;;;;;;;18.95;57.24;97481.10;103708;1277;72665;-35
2023/10/31 00:39:58;;;;;;;2.70;1.90;;;;;;;18.95;57.25;97473.20;103728;1280;62067;-35
2023/10/31 00:42:25;;;;;;;3.50;2.10;;;;;;;18.95;57.32;97470.80;103841;1280;62193;-35
2023/10/31 00:44:52;;;;;;;3.10;2.00;;;;;;;18.95;57.29;97472.65;103752;1280;75426;-35
2023/10/31 00:47:19;;;;;;;3.40;2.30;;;;;;;18.95;57.30;97471.40;103750;1277;66187;-36
2023/10/31 00:49:46;;;;;;;3.10;2.00;;;;;;;18.95;57.23;97472.96;103729;1280;72356;-34
2023/10/31 00:52:13;;;;;;;2.60;1.90;;;;;;;18.95;57.32;97467.60;103823;1290;62120;-35
2023/10/31 00:54:39;;;;;;;2.30;1.90;;;;;;;18.95;57.18;97469.45;103951;1280;62092;-35
2023/10/31 00:57:06;;;;;;;2.80;2.00;;;;;;;18.95;57.22;97459.39;103726;1280;76168;-35
2023/10/31 00:59:33;;;;;;;2.90;2.20;;;;;;;18.94;57.25;97461.77;103733;1277;63969;-36
2023/10/31 01:01:59;;;;;;;2.40;1.90;;;;;;;18.94;57.26;97457.66;103784;1277;72587;-35
2023/10/31 01:04:26;;;;;;;2.40;2.10;;;;;;;18.94;57.25;97456.58;103684;1280;62153;-35
2023/10/31 01:06:53;;;;;;;2.20;2.00;;;;;;;18.94;57.30;97457.41;103768;1280;62045;-35
2023/10/31 01:09:19;;;;;;;2.60;2.00;;;;;;;18.94;57.25;97463.92;103796;1279;75361;-35
2023/10/31 01:11:46;;;;;;;2.90;2.20;;;;;;;18.93;57.27;97454.45;103777;1280;65894;-35
2023/10/31 01:14:12;;;;;;;3.40;2.30;;;;;;;18.93;57.26;97455.17;103686;1280;72629;-35
2023/10/31 01:16:42;;;;;;;3.80;2.20;;;;;;;18.94;57.23;97449.12;103603;1277;62172;-35
2023/10/31 01:19:09;;;;;;;3.40;2.10;;;;;;;18.93;57.27;97449.74;103845;1277;62108;-33
2023/10/31 01:21:36;;;;;;;2.80;1.80;;;;;;;18.93;57.25;97450.90;103869;1280;75236;-34
2023/10/31 01:24:03;;;;;;;2.70;1.90;;;;;;;18.93;57.22;97446.33;103802;1280;66165;-36
2023/10/31 01:26:30;;;;;;;3.30;2.00;;;;;;;18.93;57.22;97440.44;103813;1277;72433;-35
2023/10/31 01:28:58;;;;;;;3.20;2.30;;;;;;;18.93;57.23;97439.27;103872;1276;62074;-35
2023/10/31 01:31:24;;;;;;;2.90;2.00;;;;;;;18.92;57.34;97440.57;103940;1276;62238;-35
2023/10/31 01:33:51;;;;;;;2.60;2.30;;;;;;;18.92;57.11;97439.64;103854;1282;75565;-35
2023/10/31 01:36:18;;;;;;;3.00;2.50;;;;;;;18.93;57.13;97441.89;103764;1280;66319;-35
2023/10/31 01:38:46;;;;;;;3.80;2.50;;;;;;;18.92;57.15;97437.47;103828;1280;72511;-35
2023/10/31 01:41:13;;;;;;;2.70;2.20;;;;;;;18.92;57.17;97429.77;103972;1280;63665;-34
2023/10/31 01:43:39;;;;;;;2.90;2.30;;;;;;;18.91;57.16;97430.85;103750;1280;62129;-34
2023/10/31 01:46:09;;;;;;;3.10;2.30;;;;;;;18.92;57.25;97432.02;103887;1277;75355;-34
2023/10/31 01:48:35;;;;;;;3.30;2.30;;;;;;;18.92;57.17;97427.84;103745;1283;65995;-34
2023/10/31 01:51:04;;;;;;;2.50;2.20;;;;;;;18.91;57.17;97429.60;103944;1277;72930;-34
2023/10/31 01:53:33;;;;;;;3.10;2.20;;;;;;;18.91;57.23;97424.34;103616;1282;62212;-34
2023/10/31 01:56:03;;;;;;;2.50;2.20;;;;;;;18.91;57.13;97418.69;103852;1280;62194;-34
2023/10/31 01:58:34;;;;;;;2.40;2.10;;;;;;;18.91;57.13;97417.83;103745;1280;75298;-34
2023/10/31 02:01:01;;;;;;;3.90;2.70;;;;;;;18.91;57.09;97417.89;103780;1283;66287;-34
2023/10/31 02:03:28;;;;;;;3.60;2.50;;;;;;;18.92;57.13;97415.41;104049;1280;72921;-34
2023/10/31 02:05:55;;;;;;;2.40;2.20;;;;;;;18.91;57.18;97414.73;104007;1280;62091;-35
2023/10/31 02:08:21;;;;;;;2.70;2.10;;;;;;;18.92;57.21;97414.97;103938;1277;62106;-35
2023/10/31 02:10:49;;;;;;;2.60;2.30;;;;;;;18.91;57.16;97414.88;103810;1280;75508;-35
2023/10/31 02:13:17;;;;;;;3.00;2.30;;;;;;;18.91;57.12;97408.83;103966;1277;65945;-35
2023/10/31 02:15:45;;;;;;;2.60;2.20;;;;;;;18.91;57.13;97410.37;107031;1276;71912;-35
2023/10/31 02:18:11;;;;;;;3.40;2.30;;;;;;;18.91;57.19;97409.53;104156;1280;62066;-35
2023/10/31 02:20:38;;;;;;;4.60;2.40;;;;;;;18.91;57.15;97408.60;104131;1280;62663;-36
2023/10/31 02:23:06;;;;;;;3.30;2.30;;;;;;;18.91;57.07;97403.56;104033;1277;75580;-36
2023/10/31 02:25:33;;;;;;;2.80;2.30;;;;;;;18.92;57.10;97404.66;104298;1280;66138;-34
2023/10/31 02:27:59;;;;;;;2.40;2.10;;;;;;;18.92;57.15;97403.95;104052;1277;72428;-35
2023/10/31 02:30:26;;;;;;;6.30;2.60;;;;;;;18.92;57.09;97402.64;103871;1280;62095;-34
2023/10/31 02:32:53;;;;;;;3.10;2.00;;;;;;;18.92;56.99;97401.40;103943;1280;62197;-34
2023/10/31 02:35:20;;;;;;;3.70;2.60;;;;;;;18.92;56.99;97395.12;103755;1280;75555;-34
2023/10/31 02:37:47;;;;;;;2.90;2.20;;;;;;;18.92;57.08;97397.45;103889;1280;66012;-34
2023/10/31 02:40:13;;;;;;;3.40;2.20;;;;;;;18.91;57.03;97391.00;103998;1277;72461;-34
2023/10/31 02:42:40;;;;;;;3.40;2.30;;;;;;;18.92;56.98;97388.38;104027;1280;62059;-34
2023/10/31 02:45:08;;;;;;;3.00;2.60;;;;;;;18.91;57.01;97388.43;104027;1276;62146;-34
2023/10/31 02:47:34;;;;;;;4.20;2.40;;;;;;;18.90;57.05;97385.10;103987;1280;75432;-34
2023/10/31 02:50:01;;;;;;;3.50;2.80;;;;;;;18.90;57.01;97385.02;103970;1280;66119;-34
2023/10/31 02:52:28;;;;;;;3.30;2.40;;;;;;;18.90;57.01;97381.89;103791;1277;72496;-34
2023/10/31 02:54:55;;;;;;;2.70;2.20;;;;;;;18.90;57.13;97377.86;104049;1281;62091;-34
2023/10/31 02:57:21;;;;;;;3.50;2.60;;;;;;;18.90;57.06;97373.76;103987;1277;62171;-34
2023/10/31 02:59:48;;;;;;;3.00;2.10;;;;;;;18.89;57.06;97366.55;103798;1279;75288;-34
2023/10/31 03:02:15;;;;;;;2.70;2.30;;;;;;;18.90;56.95;97372.91;104001;1280;66053;-34
2023/10/31 03:04:41;;;;;;;2.70;2.30;;;;;;;18.90;57.02;97371.74;104013;1277;72384;-35
2023/10/31 03:07:08;;;;;;;4.00;2.70;;;;;;;18.89;57.08;97360.88;103739;1277;62092;-35
2023/10/31 03:09:34;;;;;;;2.60;2.30;;;;;;;18.89;57.04;97358.79;103650;1277;62098;-35
2023/10/31 03:12:02;;;;;;;2.80;2.40;;;;;;;18.89;57.01;97353.68;103715;1283;75410;-34
2023/10/31 03:14:30;;;;;;;3.50;2.10;;;;;;;18.89;56.97;97348.93;103966;1280;66047;-34
2023/10/31 03:16:57;;;;;;;3.30;2.50;;;;;;;18.89;57.03;97346.60;103869;1277;72346;-34
2023/10/31 03:19:23;;;;;;;2.90;2.40;;;;;;;18.89;56.94;97347.92;103798;1280;62091;-34
2023/10/31 03:21:50;;;;;;;3.50;2.70;;;;;;;18.89;57.02;97347.39;103812;1277;62162;-34
2023/10/31 03:24:16;;;;;;;2.70;2.10;;;;;;;18.87;56.98;97343.17;103731;1278;75870;-34
2023/10/31 03:26:43;;;;;;;3.70;2.50;;;;;;;18.87;57.05;97341.02;103866;1277;65928;-35
2023/10/31 03:29:10;;;;;;;3.40;2.40;;;;;;;18.88;56.94;97337.83;103775;1277;73214;-35
2023/10/31 03:31:38;;;;;;;3.30;2.60;;;;;;;18.88;57.01;97339.30;103886;1280;62078;-35
2023/10/31 03:34:05;;;;;;;3.20;2.40;;;;;;;18.87;56.98;97336.04;103934;1277;62068;-35
2023/10/31 03:36:31;;;;;;;3.30;2.40;;;;;;;18.87;56.96;97335.41;103696;1278;75134;-35
2023/10/31 03:38:58;;;;;;;2.60;2.40;;;;;;;18.87;56.95;97338.13;103734;1280;65316;-36
2023/10/31 03:41:25;;;;;;;2.90;2.40;;;;;;;18.87;56.97;97333.77;103814;1277;73129;-35
2023/10/31 03:43:52;;;;;;;2.90;2.50;;;;;;;18.86;57.03;97325.10;103985;1280;62091;-35
2023/10/31 03:46:19;;;;;;;3.90;2.50;;;;;;;18.87;56.87;97323.31;103907;1278;62100;-35
2023/10/31 03:48:45;;;;;;;2.80;2.50;;;;;;;18.87;56.99;97314.55;103958;1280;75406;-35
2023/10/31 03:51:12;;;;;;;2.80;2.30;;;;;;;18.87;56.96;97313.46;103714;1283;64452;-35
2023/10/31 03:53:38;;;;;;;4.40;2.60;;;;;;;18.87;56.92;97315.48;103912;1276;72688;-35
2023/10/31 03:56:05;;;;;;;2.50;2.20;;;;;;;18.87;57.02;97314.87;104074;1280;62104;-35
2023/10/31 03:58:32;;;;;;;4.20;2.60;;;;;;;18.87;56.94;97308.44;103868;1277;62212;-35
2023/10/31 04:00:58;;;;;;;2.70;2.40;;;;;;;18.86;56.90;97301.14;103753;1280;75406;-35
2023/10/31 04:03:25;;;;;;;2.80;2.50;;;;;;;18.86;56.95;97300.51;103809;1280;65772;-35
2023/10/31 04:05:52;;;;;;;2.90;2.50;;;;;;;18.85;56.93;97297.40;103806;1276;72533;-35
2023/10/31 04:08:19;;;;;;;2.50;2.20;;;;;;;18.85;56.87;97299.48;103819;1280;62107;-35
2023/10/31 04:10:46;;;;;;;3.60;2.60;;;;;;;18.85;56.93;97303.20;103963;1280;62082;-35
2023/10/31 04:13:13;;;;;;;3.90;2.70;;;;;;;18.85;56.89;97307.39;104029;1277;75327;-35
2023/10/31 04:15:39;;;;;;;3.20;2.70;;;;;;;18.85;56.95;97304.68;103948;1280;65836;-34
2023/10/31 04:18:06;;;;;;;2.80;2.30;;;;;;;18.85;56.92;97304.29;103984;1276;72691;-34
2023/10/31 04:20:33;;;;;;;3.30;2.60;;;;;;;18.85;56.97;97296.94;103710;1280;62079;-34
2023/10/31 04:23:00;;;;;;;3.30;2.90;;;;;;;18.85;56.98;97295.23;103860;1280;62076;-34
2023/10/31 04:25:28;;;;;;;3.40;2.80;;;;;;;18.86;56.82;97300.35;104190;1277;75772;-34
2023/10/31 04:27:55;;;;;;;3.40;2.60;;;;;;;18.85;56.87;97295.13;103803;1280;65936;-34
2023/10/31 04:30:22;;;;;;;3.00;2.40;;;;;;;18.84;56.95;97289.94;104363;1276;72515;-34
2023/10/31 04:32:49;;;;;;;3.20;2.60;;;;;;;18.85;56.86;97281.73;103757;1280;62872;-34
2023/10/31 04:35:16;;;;;;;3.50;2.80;;;;;;;18.84;57.00;97275.20;104022;1277;62091;-34
2023/10/31 04:37:42;;;;;;;2.80;2.40;;;;;;;18.85;56.90;97276.69;103992;1280;75202;-33
2023/10/31 04:40:10;;;;;;;3.10;2.60;;;;;;;18.85;56.87;97276.23;104014;1280;66056;-35
2023/10/31 04:42:38;;;;;;;3.30;2.70;;;;;;;18.86;56.89;97276.79;103897;1277;72437;-35
2023/10/31 04:45:06;;;;;;;4.40;2.80;;;;;;;18.86;56.89;97280.44;103788;1280;62118;-35
2023/10/31 04:47:33;;;;;;;3.60;2.80;;;;;;;18.86;56.77;97278.10;103868;1276;62106;-35
2023/10/31 04:50:00;;;;;;;3.40;2.60;;;;;;;18.85;56.87;97272.89;103850;1280;74292;-37
2023/10/31 04:52:26;;;;;;;3.00;2.70;;;;;;;18.85;56.82;97269.64;104523;1277;64879;-36
2023/10/31 04:54:53;;;;;;;3.10;2.80;;;;;;;18.84;56.85;97269.70;104745;1277;72629;-36
2023/10/31 04:57:20;;;;;;;2.80;2.30;;;;;;;18.84;56.80;97263.04;104002;1280;62057;-37
2023/10/31 04:59:47;;;;;;;3.90;2.90;;;;;;;18.85;56.72;97260.73;103895;1277;62164;-34
2023/10/31 05:02:13;;;;;;;2.90;2.40;;;;;;;18.85;56.79;97262.98;103938;1278;75953;-35
2023/10/31 05:04:40;;;;;;;4.70;3.00;;;;;;;18.85;56.78;97267.33;103839;1277;66313;-34
2023/10/31 05:07:08;;;;;;;3.90;2.60;;;;;;;18.84;56.83;97269.77;103868;1277;72509;-34
2023/10/31 05:09:35;;;;;;;3.20;2.80;;;;;;;18.85;56.76;97274.52;103985;1280;62081;-35
2023/10/31 05:12:02;;;;;;;3.50;2.60;;;;;;;18.84;56.77;97273.34;103722;1277;62125;-34
2023/10/31 05:14:29;;;;;;;3.40;2.40;;;;;;;18.85;56.75;97275.45;103685;1278;75489;-35
2023/10/31 05:16:55;;;;;;;2.80;2.50;;;;;;;18.85;56.74;97277.45;103986;1280;65779;-35
2023/10/31 05:19:22;;;;;;;2.80;2.50;;;;;;;18.85;56.78;97275.76;103861;1277;72728;-35
2023/10/31 05:21:49;;;;;;;2.90;2.50;;;;;;;18.84;56.81;97271.94;103703;1280;62133;-35
2023/10/31 05:24:15;;;;;;;3.30;2.60;;;;;;;18.84;56.77;97273.04;103801;1278;62133;-35
2023/10/31 05:26:42;;;;;;;3.00;2.70;;;;;;;18.85;56.78;97273.50;103745;1277;75864;-35
2023/10/31 05:29:10;;;;;;;2.80;2.60;;;;;;;18.85;56.78;97275.45;103809;1280;66087;-35
2023/10/31 05:31:38;;;;;;;3.50;2.90;;;;;;;18.84;56.79;97268.62;103785;1277;71151;-35
2023/10/31 05:34:05;;;;;;;2.70;2.50;;;;;;;18.84;56.69;97270.48;103977;1280;62141;-35
2023/10/31 05:36:31;;;;;;;3.50;2.70;;;;;;;18.83;56.76;97269.77;103986;1276;62189;-33
2023/10/31 05:38:58;;;;;;;3.30;2.80;;;;;;;18.84;56.74;97275.44;103840;1277;75232;-36
2023/10/31 05:41:25;;;;;;;3.00;2.60;;;;;;;18.84;56.75;97279.77;103873;1277;66322;-35
2023/10/31 05:43:51;;;;;;;3.60;2.90;;;;;;;18.84;56.66;97283.57;103657;1277;72814;-36
2023/10/31 05:46:18;;;;;;;3.60;2.80;;;;;;;18.85;56.72;97286.52;104046;1280;62081;-36
2023/10/31 05:48:45;;;;;;;3.10;2.70;;;;;;;18.84;56.74;97290.16;103964;1277;62144;-36
2023/10/31 05:51:16;;;;;;;4.70;2.80;;;;;;;18.84;56.73;97286.20;103989;1277;75452;-36
2023/10/31 05:53:44;;;;;;;3.50;2.80;;;;;;;18.84;56.72;97284.27;103790;1280;65524;-34
2023/10/31 05:56:18;;;;;;;4.10;2.90;;;;;;;18.84;56.71;97284.13;103772;1277;72473;-35
2023/10/31 05:58:45;;;;;;;3.00;2.80;;;;;;;18.84;56.71;97279.46;103752;1280;62218;-34
2023/10/31 06:01:12;;;;;;;3.50;2.90;;;;;;;18.83;56.75;97281.32;103908;1276;62096;-36
2023/10/31 06:03:42;;;;;;;3.20;2.90;;;;;;;18.84;56.74;97275.66;103842;1280;75543;-36
2023/10/31 06:06:08;;;;;;;2.60;2.40;;;;;;;18.84;56.72;97271.02;103835;1280;64877;-36
2023/10/31 06:08:35;;;;;;;3.30;2.80;;;;;;;18.83;56.72;97275.19;103805;1276;72615;-35
2023/10/31 06:11:03;;;;;;;3.00;2.70;;;;;;;18.84;56.73;97275.12;104004;1280;62080;-35
2023/10/31 06:13:31;;;;;;;3.20;2.90;;;;;;;18.84;56.74;97272.10;103800;1276;62091;-34
2023/10/31 06:15:58;;;;;;;3.50;2.70;;;;;;;18.85;56.89;97271.59;103669;1278;75289;-34
2023/10/31 06:18:28;;;;;;;3.20;2.70;;;;;;;18.88;56.86;97268.98;103944;1280;65946;-34
2023/10/31 06:20:55;;;;;;;4.30;2.60;;;;;;;18.90;56.84;97264.15;103944;1277;73182;-35
2023/10/31 06:23:22;;;;;;;3.30;2.90;;;;;;;18.93;56.81;97264.83;103688;1280;62081;-34
2023/10/31 06:25:49;;;;;;;4.20;2.80;;;;;;;18.96;56.78;97266.11;103874;1276;62097;-37
2023/10/31 06:28:16;;;;;;;3.80;2.80;;;;;;;18.97;56.84;97262.41;103749;1276;75160;-33
2023/10/31 06:30:42;;;;;;;6.60;3.30;;;;;;;18.97;56.83;97264.98;104020;1280;66158;-34
2023/10/31 06:33:10;;;;;;;3.70;2.90;;;;;;;18.97;56.87;97267.99;103873;1276;72677;-34
2023/10/31 06:35:37;;;;;;;4.90;2.90;;;;;;;18.96;56.92;97262.86;103954;1280;62206;-33
2023/10/31 06:38:04;;;;;;;4.20;3.50;;;;;;;18.96;56.97;97254.48;103660;1277;62199;-35
2023/10/31 06:40:30;;;;;;;3.40;2.90;;;;;;;18.95;57.05;97256.02;104246;1277;75448;-33
2023/10/31 06:42:57;;;;;;;4.60;3.10;;;;;;;18.95;57.17;97261.86;103807;1277;66159;-33
2023/10/31 06:45:24;;;;;;;4.90;3.00;;;;;;;18.95;57.34;97261.21;104093;1277;72650;-35
2023/10/31 06:47:52;;;;;;;7.00;3.60;;;;;;;18.96;57.53;97259.91;103748;1276;62129;-34
2023/10/31 06:50:18;;;;;;;8.40;3.00;;;;;;;18.97;57.62;97250.84;103545;1277;62132;-33
2023/10/31 06:52:47;;;;;;;4.60;3.20;;;;;;;18.98;57.65;97247.54;103876;1276;75431;-34
2023/10/31 06:55:15;;;;;;;6.40;3.00;;;;;;;18.99;57.87;97241.05;103783;1280;66139;-34
2023/10/31 06:57:42;;;;;;;4.80;2.90;;;;;;;19.00;57.85;97238.73;103668;1276;72349;-35
2023/10/31 07:00:11;;;;;;;4.70;3.10;;;;;;;19.02;57.97;97234.81;103569;1280;62113;-33
2023/10/31 07:02:38;;;;;;;4.10;3.00;;;;;;;19.04;58.04;97232.14;103856;1277;62201;-34
2023/10/31 07:05:05;;;;;;;5.70;3.20;;;;;;;19.06;58.06;97232.93;103561;1276;62016;-34
2023/10/31 07:07:32;;;;;;;6.50;3.30;;;;;;;19.09;58.13;97229.96;103617;1276;66628;-34
2023/10/31 07:09:58;;;;;;;6.30;3.50;;;;;;;19.14;58.36;97223.70;103568;1277;72663;-35
2023/10/31 07:12:25;;;;;;;4.10;3.20;;;;;;;19.21;58.74;97228.61;103518;1283;62092;-34
2023/10/31 07:14:53;;;;;;;5.60;3.30;;;;;;;19.28;59.19;97225.13;103821;1277;62213;-35
2023/10/31 07:17:20;;;;;;;5.30;3.00;;;;;;;19.34;59.58;97217.02;103742;1280;75325;-37
2023/10/31 07:19:47;;;;;;;4.10;3.10;;;;;;;19.40;59.78;97212.08;103690;1277;65568;-37
2023/10/31 07:22:14;;;;;;;7.90;3.30;;;;;;;19.46;59.64;97197.90;103796;1282;73284;-34
2023/10/31 07:24:44;;;;;;;5.40;3.50;;;;;;;19.50;59.42;97189.83;103651;1283;62056;-36
2023/10/31 07:27:11;;;;;;;4.80;3.30;;;;;;;19.55;59.49;97186.14;103512;1277;62138;-36
2023/10/31 07:29:41;;;;;;;5.20;3.40;;;;;;;19.57;59.48;97185.17;105109;1277;75043;-36
2023/10/31 07:32:08;;;;;;;8.50;3.80;;;;;;;19.59;59.50;97179.62;105002;1279;66320;-35
2023/10/31 07:34:40;;;;;;;6.10;3.70;;;;;;;19.62;59.50;97175.86;104070;1277;72678;-36
2023/10/31 07:37:07;;;;;;;9.00;3.70;;;;;;;19.67;59.62;97168.01;103812;1276;62162;-35
2023/10/31 07:39:33;;;;;;;4.90;3.30;;;;;;;19.71;59.75;97160.77;103710;1276;62138;-35
2023/10/31 07:42:00;;;;;;;8.60;3.60;;;;;;;19.75;59.57;97154.75;103848;1280;75465;-37
2023/10/31 07:44:27;;;;;;;5.40;3.20;;;;;;;19.78;59.52;97155.64;103747;1277;67083;-34
2023/10/31 07:46:54;;;;;;;5.60;3.40;;;;;;;19.79;59.48;97148.14;103894;1277;71434;-33
2023/10/31 07:49:20;;;;;;;6.80;3.50;;;;;;;19.82;59.48;97145.37;103911;1280;62081;-34
2023/10/31 07:51:48;;;;;;;6.50;3.60;;;;;;;19.83;59.39;97143.91;103722;1283;62034;-33
2023/10/31 07:54:16;;;;;;;4.80;3.40;;;;;;;19.84;59.32;97140.43;103983;1277;76401;-40
2023/10/31 07:56:45;;;;;;;8.60;3.30;;;;;;;19.84;59.41;97136.63;103571;1283;66023;-35
2023/10/31 07:59:12;;;;;;;5.40;3.40;;;;;;;19.85;59.42;97137.18;103787;1277;72791;-35
2023/10/31 08:01:39;;;;;;;6.40;3.00;;;;;;;19.84;59.43;97131.04;103956;1280;62092;-35
2023/10/31 08:04:06;;;;;;;6.40;3.30;;;;;;;19.84;59.50;97136.55;103598;1283;62313;-33
2023/10/31 08:06:33;;;;;;;5.30;3.10;;;;;;;19.85;59.48;97130.11;103907;1278;75786;-34
2023/10/31 08:09:00;;;;;;;5.50;3.10;;;;;;;19.86;59.53;97130.34;103896;1277;65219;-35
2023/10/31 08:11:28;;;;;;;3.30;2.70;;;;;;;19.86;59.41;97122.98;103895;1277;73519;-35
2023/10/31 08:13:56;;;;;;;5.10;3.10;;;;;;;19.87;59.50;97119.80;103662;1276;62283;-34
2023/10/31 08:16:23;;;;;;;4.70;3.10;;;;;;;19.88;59.39;97118.34;103733;1277;62170;-34
2023/10/31 08:18:49;;;;;;;6.80;3.10;;;;;;;19.90;59.26;97114.64;103796;1280;75348;-35
2023/10/31 08:21:16;;;;;;;6.70;3.30;;;;;;;19.90;59.37;97120.48;103877;1277;67469;-34
2023/10/31 08:23:46;;;;;;;4.30;3.20;;;;;;;19.92;59.28;97119.09;103557;1276;73361;-34
2023/10/31 08:26:13;;;;;;;4.10;3.20;;;;;;;19.93;59.25;97117.55;103687;1283;62184;-33
2023/10/31 08:28:40;;;;;;;7.10;3.40;;;;;;;19.94;59.22;97117.55;103840;1277;62127;-35
2023/10/31 08:31:07;;;;;;;5.40;3.20;;;;;;;19.95;59.30;97119.27;103832;1280;75267;-33
2023/10/31 08:33:34;;;;;;;4.00;2.90;;;;;;;19.97;59.29;97116.44;103688;1277;67116;-36
2023/10/31 08:36:01;;;;;;;4.90;3.40;;;;;;;19.98;59.27;97107.91;103776;1278;73450;-34
2023/10/31 08:38:28;;;;;;;3.30;2.90;;;;;;;19.99;59.11;97100.61;103794;1280;62093;-34
2023/10/31 08:40:58;;;;;;;5.90;3.20;;;;;;;20.00;59.25;97100.45;103946;1275;62171;-35
2023/10/31 08:43:26;;;;;;;7.00;3.20;;;;;;;20.01;59.23;97101.73;103652;1276;75994;-36
2023/10/31 08:45:52;;;;;;;5.00;3.10;;;;;;;20.02;59.41;97104.06;107550;1276;66760;-36
2023/10/31 08:48:19;;;;;;;3.50;2.90;;;;;;;20.05;59.18;97097.41;103906;1279;62119;-33
2023/10/31 08:50:46;;;;;;;4.00;3.00;;;;;;;20.06;59.12;97098.67;103773;1280;210638;-35
2023/10/31 08:53:13;;;;;;;4.70;3.10;;;;;;;20.09;59.18;97103.82;103924;1277;62153;-35
2023/10/31 08:55:43;;;;;;;3.80;2.90;;;;;;;20.09;59.07;97107.31;103699;1280;76975;-35
2023/10/31 08:58:14;;;;;;;7.80;2.90;;;;;;;20.11;59.09;97109.14;103897;1280;65840;-36
2023/10/31 09:00:40;;;;;;;3.90;3.00;;;;;;;20.12;59.24;97108.20;103782;1277;72594;-35
2023/10/31 09:03:07;;;;;;;6.50;3.20;;;;;;;20.14;59.25;97110.01;104471;1280;63560;-35
2023/10/31 09:05:34;;;;;;;3.20;2.70;;;;;;;20.15;59.29;97108.23;103784;1277;62155;-34
2023/10/31 09:08:02;;;;;;;4.40;2.80;;;;;;;20.16;59.30;97104.82;103770;1278;76500;-35
2023/10/31 09:10:29;;;;;;;4.30;2.90;;;;;;;20.16;59.27;97097.06;104146;1282;66358;-38
2023/10/31 09:12:56;;;;;;;6.10;3.10;;;;;;;20.17;59.31;97100.09;103676;1277;73851;-35
2023/10/31 09:15:23;;;;;;;4.80;3.20;;;;;;;20.17;59.18;97094.13;104372;1280;62040;-36
2023/10/31 09:17:49;;;;;;;5.60;3.20;;;;;;;20.17;59.23;97089.52;103778;1278;62075;-37
2023/10/31 09:20:17;;;;;;;6.80;3.10;;;;;;;20.17;59.17;97092.79;103497;1276;76386;-33
2023/10/31 09:22:44;;;;;;;5.00;2.90;;;;;;;20.17;59.16;97096.61;103849;1277;68238;-36
2023/10/31 09:25:13;;;;;;;11.10;3.10;;;;;;;20.18;59.18;97092.27;103441;1285;74482;-39
2023/10/31 09:27:40;;;;;;;5.40;3.30;;;;;;;20.18;59.46;97094.14;103581;1280;62076;-38
2023/10/31 09:30:08;;;;;;;4.60;2.90;;;;;;;20.22;59.84;97098.08;103811;1277;62151;-39
2023/10/31 09:32:35;;;;;;;10.90;3.40;;;;;;;20.24;60.14;97091.98;104634;1276;76628;-38
2023/10/31 09:35:02;;;;;;;9.10;3.70;;;;;;;20.27;60.42;97091.92;103787;1280;68059;-35
2023/10/31 09:37:29;;;;;;;5.90;3.50;;;;;;;20.28;60.49;97090.61;103584;1277;72716;-36
2023/10/31 09:39:57;;;;;;;6.70;3.30;;;;;;;20.31;60.59;97085.98;103917;1280;62066;-40
2023/10/31 09:42:23;;;;;;;3.70;2.60;;;;;;;20.33;60.61;97082.34;103854;1276;62116;-36
2023/10/31 09:44:50;;;;;;;4.80;3.10;;;;;;;20.35;60.50;97078.08;103651;1277;75532;-40
2023/10/31 09:47:17;;;;;;;4.30;3.00;;;;;;;20.37;60.62;97076.78;103649;1277;66647;-40
2023/10/31 09:49:44;;;;;;;9.40;3.90;;;;;;;20.39;60.57;97076.26;103750;1277;73579;-41
2023/10/31 09:52:10;;;;;;;6.80;3.60;;;;;;;20.41;60.33;97071.98;103855;1280;61998;-37
2023/10/31 09:54:37;;;;;;;6.80;3.30;;;;;;;20.42;60.43;97068.20;103790;1278;62132;-37
2023/10/31 09:57:04;;;;;;;7.30;3.30;;;;;;;20.43;60.34;97066.41;103725;1280;75257;-38
2023/10/31 09:59:31;;;;;;;9.80;3.10;;;;;;;20.42;60.13;97063.45;103877;1280;66003;-37
2023/10/31 10:01:58;;;;;;;4.60;3.20;;;;;;;20.41;59.90;97062.20;103464;1277;71695;-38
2023/10/31 10:04:25;;;;;;;9.10;3.70;;;;;;;20.41;59.71;97061.27;103730;1280;62084;-39
2023/10/31 10:06:58;;;;;;;9.10;3.50;;;;;;;20.40;59.55;97054.34;105080;1276;62152;-38
2023/10/31 10:09:25;;;;;;;5.60;3.50;;;;;;;20.39;59.35;97051.62;104901;1276;75424;-39
2023/10/31 10:11:53;;;;;;;8.40;3.40;;;;;;;20.38;59.18;97050.52;104797;1276;66156;-38
2023/10/31 10:14:26;;;;;;;9.60;3.50;;;;;;;20.37;59.16;97052.06;103682;1278;73591;-36
2023/10/31 10:16:52;;;;;;;9.10;3.50;;;;;;;20.36;58.97;97047.70;103839;1276;61994;-37
2023/10/31 10:19:20;;;;;;;8.20;3.60;;;;;;;20.36;58.87;97051.21;103608;1283;62148;-39
2023/10/31 10:21:57;;;;;;;7.70;3.30;;;;;;;20.35;59.02;97047.00;103906;1277;76438;-39
2023/10/31 10:24:24;;;;;;;7.10;3.10;;;;;;;20.34;58.97;97040.70;104023;1277;67056;-39
2023/10/31 10:26:51;;;;;;;7.80;3.20;;;;;;;20.33;58.81;97042.48;103946;1277;74032;-39
2023/10/31 10:29:18;;;;;;;6.30;3.00;;;;;;;20.32;58.78;97041.08;103608;1283;62111;-38
2023/10/31 10:31:45;;;;;;;6.90;3.50;;;;;;;20.31;58.69;97037.17;103810;1277;62711;-38
2023/10/31 10:34:14;;;;;;;6.20;3.50;;;;;;;20.31;58.73;97036.23;103846;1280;75994;-39
2023/10/31 10:36:41;;;;;;;5.70;3.40;;;;;;;20.29;58.80;97032.96;103594;1277;65212;-36
2023/10/31 10:39:07;;;;;;;4.60;3.00;;;;;;;20.29;58.82;97035.60;103601;1283;73404;-39
2023/10/31 10:41:35;;;;;;;6.20;3.30;;;;;;;20.29;58.73;97037.32;103665;1283;62024;-38
2023/10/31 10:44:06;;;;;;;6.10;3.20;;;;;;;20.30;58.81;97037.56;103794;1276;62067;-37
2023/10/31 10:46:34;;;;;;;5.20;3.30;;;;;;;20.30;58.74;97036.70;103761;1276;76152;-37
2023/10/31 10:49:06;;;;;;;3.30;2.90;;;;;;;20.31;58.76;97032.05;103741;1276;67397;-37
2023/10/31 10:51:54;;;;;;;5.50;3.30;;;;;;;20.30;58.62;97030.89;104528;1277;73664;-35
2023/10/31 10:54:37;;;;;;;4.50;3.20;;;;;;;20.31;58.69;97029.27;104628;1280;62097;-37
2023/10/31 10:57:15;;;;;;;6.60;3.20;;;;;;;20.31;58.64;97019.15;103616;1278;62203;-36
2023/10/31 10:59:52;;;;;;;6.10;3.10;;;;;;;20.31;58.60;97015.96;103648;1283;75643;-36
2023/10/31 11:02:19;;;;;;;5.20;3.10;;;;;;;20.32;58.68;97014.52;103818;1277;66270;-38
2023/10/31 11:04:47;;;;;;;3.90;3.00;;;;;;;20.32;58.63;97017.23;104079;1277;73772;-39
2023/10/31 11:07:14;;;;;;;4.70;2.80;;;;;;;20.32;58.60;97016.69;103751;1277;62092;-37
2023/10/31 11:09:43;;;;;;;3.90;2.90;;;;;;;20.31;58.51;97016.52;103443;1284;62193;-37
2023/10/31 11:12:10;;;;;;;4.10;2.80;;;;;;;20.29;58.60;97013.71;103689;1282;74680;-38
2023/10/31 11:14:39;;;;;;;4.60;3.00;;;;;;;20.28;58.45;97015.63;103531;1286;64824;-39
2023/10/31 11:17:20;;;;;;;4.10;2.90;;;;;;;20.27;58.51;97026.73;103903;1277;72599;-37
2023/10/31 11:19:47;;;;;;;3.80;2.90;;;;;;;20.25;58.36;97032.02;103908;1280;62117;-37
2023/10/31 11:22:13;;;;;;;6.50;3.10;;;;;;;20.24;58.34;97028.58;103629;1283;62149;-38
2023/10/31 11:24:41;;;;;;;6.10;3.20;;;;;;;20.23;58.41;97031.82;103645;1277;76619;-39